Time;durP1;ratioP1;P1;durP2;ratioP2;P2;SDS_P1;SDS_P2;PMS_P1;PMS_P2;Temp;Humidity;BMP_temperature;BMP_pressure;BME280_temperature;BME280_humidity;BME280_pressure;Samples;Min_cycle;Max_cycle;Signal;HPM_P1;HPM_P2
2023/09/12 00:02:17;;;;;;;1.75;1.65;;;21.80;99.90;;;;;;5010142;28;20034;-79
2023/09/12 00:04:43;;;;;;;0.32;0.32;;;21.40;99.90;;;;;;5009957;28;20026;-78
2023/09/12 00:07:08;;;;;;;0.22;0.22;;;21.20;99.90;;;;;;5010321;28;20079;-79
2023/09/12 00:09:34;;;;;;;0.10;0.10;;;21.10;99.90;;;;;;5010262;28;20506;-81
2023/09/12 00:12:00;;;;;;;0.00;0.00;;;21.40;99.90;;;;;;5010213;28;20029;-77
2023/09/12 00:14:26;;;;;;;0.10;0.10;;;21.60;99.90;;;;;;5008496;28;20042;-79
2023/09/12 00:16:55;;;;;;;0.00;0.00;;;21.30;99.90;;;;;;5009158;28;20537;-80
2023/09/12 00:19:21;;;;;;;0.00;0.00;;;21.40;99.90;;;;;;5009009;28;20098;-78
2023/09/12 00:21:46;;;;;;;5.07;1.13;;;21.70;99.90;;;;;;5009963;28;20502;-77
2023/09/12 00:24:12;;;;;;;0.00;0.00;;;21.50;99.90;;;;;;5008843;28;20025;-81
2023/09/12 00:26:38;;;;;;;0.32;0.30;;;21.30;99.90;;;;;;5008558;28;20026;-78
2023/09/12 00:29:04;;;;;;;0.00;0.00;;;21.10;99.90;;;;;;5009920;28;20386;-77
2023/09/12 00:31:29;;;;;;;0.30;0.30;;;21.00;99.90;;;;;;4992152;28;20038;-81
2023/09/12 00:33:55;;;;;;;1.63;1.02;;;21.10;99.90;;;;;;5008235;28;20061;-76
2023/09/12 00:36:21;;;;;;;0.00;0.00;;;21.00;99.90;;;;;;5008518;28;20022;-77
2023/09/12 00:38:47;;;;;;;0.10;0.10;;;21.40;99.90;;;;;;5008456;28;20075;-76
2023/09/12 00:41:13;;;;;;;0.10;0.10;;;21.40;99.90;;;;;;5008696;28;20022;-80
2023/09/12 00:43:39;;;;;;;0.22;0.22;;;21.30;99.90;;;;;;5008546;28;20103;-79
2023/09/12 00:46:04;;;;;;;0.17;0.17;;;21.20;99.90;;;;;;5009588;28;20022;-77
2023/09/12 00:48:31;;;;;;;0.00;0.00;;;21.10;99.90;;;;;;5008231;28;20029;-80
2023/09/12 00:50:57;;;;;;;0.25;0.25;;;21.00;99.90;;;;;;5008307;28;20030;-79
2023/09/12 00:53:23;;;;;;;0.75;0.75;;;21.20;99.90;;;;;;5009675;28;20038;-81
2023/09/12 00:55:56;;;;;;;1.73;1.27;;;21.30;99.90;;;;;;5008053;28;20022;-80
2023/09/12 00:58:23;;;;;;;0.00;0.00;;;21.30;99.90;;;;;;5008523;28;20091;-78
2023/09/12 01:00:49;;;;;;;1.00;1.00;;;21.30;99.90;;;;;;5007982;28;20075;-78
2023/09/12 01:03:15;;;;;;;4.25;3.83;;;21.20;99.90;;;;;;5009220;28;20482;-78
2023/09/12 01:05:42;;;;;;;0.10;0.10;;;21.20;99.90;;;;;;5006732;28;20439;-76
2023/09/12 01:08:08;;;;;;;0.80;0.80;;;21.20;99.90;;;;;;5008299;28;20022;-76
2023/09/12 01:10:35;;;;;;;0.05;0.05;;;21.00;99.90;;;;;;5009126;28;20471;-76
2023/09/12 01:13:02;;;;;;;0.00;0.00;;;21.00;99.90;;;;;;5009229;28;20049;-80
2023/09/12 01:15:28;;;;;;;1.25;1.00;;;21.30;99.90;;;;;;5009093;28;20034;-79
2023/09/12 01:17:56;;;;;;;0.10;0.10;;;21.60;99.90;;;;;;5009241;28;20047;-77
2023/09/12 01:20:32;;;;;;;0.40;0.40;;;21.60;99.90;;;;;;5009551;28;20075;-76
2023/09/12 01:23:15;;;;;;;0.10;0.10;;;21.70;99.90;;;;;;5007933;28;20466;-76
2023/09/12 01:25:47;;;;;;;0.05;0.05;;;22.00;99.90;;;;;;5007768;28;20052;-76
2023/09/12 01:28:16;;;;;;;0.00;0.00;;;22.10;99.90;;;;;;5009369;28;20026;-76
2023/09/12 01:30:45;;;;;;;0.00;0.00;;;22.10;99.90;;;;;;4992579;28;20576;-76
2023/09/12 01:33:11;;;;;;;0.00;0.00;;;21.90;99.90;;;;;;5011065;28;20056;-79
2023/09/12 01:35:37;;;;;;;0.00;0.00;;;22.00;99.90;;;;;;5011184;28;20120;-79
2023/09/12 01:38:04;;;;;;;0.43;0.43;;;22.00;99.90;;;;;;5010891;28;20039;-80
2023/09/12 01:40:48;;;;;;;1.65;0.40;;;22.00;99.90;;;;;;4994781;28;20049;-76
2023/09/12 01:43:17;;;;;;;1.35;1.08;;;22.10;99.90;;;;;;5011107;28;20034;-76
2023/09/12 01:45:47;;;;;;;1.17;0.65;;;22.00;99.90;;;;;;5011902;28;20033;-80
2023/09/12 01:48:19;;;;;;;0.35;0.35;;;21.90;99.90;;;;;;5012180;28;20505;-81
2023/09/12 01:50:45;;;;;;;0.13;0.13;;;21.90;99.90;;;;;;5011043;28;20018;-76
2023/09/12 01:53:11;;;;;;;0.00;0.00;;;22.00;99.90;;;;;;5012046;28;20035;-81
2023/09/12 01:55:38;;;;;;;0.80;0.80;;;22.20;99.90;;;;;;5012184;28;20020;-80
2023/09/12 01:58:04;;;;;;;0.55;0.55;;;21.70;99.90;;;;;;5010839;28;20067;-80
2023/09/12 02:00:30;;;;;;;0.93;0.45;;;21.60;99.90;;;;;;5010567;28;20037;-80
2023/09/12 02:02:56;;;;;;;0.08;0.08;;;21.60;99.90;;;;;;5011826;28;20410;-79
2023/09/12 02:05:22;;;;;;;1.23;1.17;;;21.50;99.90;;;;;;5012135;28;20033;-80
2023/09/12 02:07:48;;;;;;;0.00;0.00;;;21.60;99.90;;;;;;5010613;28;20034;-78
2023/09/12 02:10:15;;;;;;;0.00;0.00;;;21.80;99.90;;;;;;5010873;28;20439;-77
2023/09/12 02:12:41;;;;;;;2.40;0.52;;;21.80;99.90;;;;;;4994169;28;20117;-78
2023/09/12 02:15:07;;;;;;;0.47;0.47;;;21.60;99.90;;;;;;5010172;28;20045;-81
2023/09/12 02:17:34;;;;;;;0.13;0.13;;;21.70;99.90;;;;;;5011862;28;20040;-81
2023/09/12 02:19:59;;;;;;;0.63;0.63;;;21.90;99.90;;;;;;4994454;28;20412;-80
2023/09/12 02:22:25;;;;;;;0.63;0.63;;;21.90;99.90;;;;;;5010323;28;20025;-77
2023/09/12 02:24:52;;;;;;;0.35;0.35;;;21.80;99.90;;;;;;5011778;28;20074;-76
2023/09/12 02:27:17;;;;;;;0.00;0.00;;;22.00;99.90;;;;;;5011430;28;20037;-75
2023/09/12 02:29:44;;;;;;;0.45;0.45;;;21.50;99.90;;;;;;5010443;28;20026;-76
2023/09/12 02:32:10;;;;;;;0.15;0.15;;;21.30;99.90;;;;;;5010081;28;20034;-77
2023/09/12 02:34:36;;;;;;;0.00;0.00;;;21.50;99.90;;;;;;5010398;28;20099;-77
2023/09/12 02:37:02;;;;;;;0.00;0.00;;;21.50;99.90;;;;;;5010289;28;20504;-77
2023/09/12 02:39:28;;;;;;;0.43;0.43;;;21.50;99.90;;;;;;5009955;28;20160;-76
2023/09/12 02:41:54;;;;;;;2.17;0.47;;;21.50;99.90;;;;;;5009723;28;20124;-76
2023/09/12 02:44:19;;;;;;;0.95;0.95;;;21.30;99.90;;;;;;5009794;28;20055;-76
2023/09/12 02:46:46;;;;;;;0.63;0.63;;;21.20;99.90;;;;;;5010264;28;20033;-77
2023/09/12 02:49:12;;;;;;;0.13;0.13;;;21.20;99.90;;;;;;5009928;28;20026;-76
2023/09/12 02:51:39;;;;;;;5.57;0.95;;;21.10;99.90;;;;;;5010183;28;20029;-76
2023/09/12 02:54:05;;;;;;;0.98;0.98;;;21.10;99.90;;;;;;5009807;28;20049;-77
2023/09/12 02:56:32;;;;;;;0.00;0.00;;;21.00;99.90;;;;;;5010058;28;20113;-76
2023/09/12 02:58:58;;;;;;;0.00;0.00;;;21.20;99.90;;;;;;5009590;28;20146;-78
2023/09/12 03:01:26;;;;;;;0.00;0.00;;;21.40;99.90;;;;;;5009639;28;20569;-78
2023/09/12 03:03:52;;;;;;;2.05;1.92;;;21.30;99.90;;;;;;5010785;28;20045;-77
2023/09/12 03:06:18;;;;;;;0.20;0.20;;;21.30;99.90;;;;;;5010955;28;20030;-76
2023/09/12 03:08:44;;;;;;;0.25;0.25;;;21.00;99.90;;;;;;5010984;28;20125;-75
2023/09/12 03:11:10;;;;;;;0.00;0.00;;;21.20;99.90;;;;;;4993569;28;20026;-78
2023/09/12 03:13:41;;;;;;;1.00;0.75;;;21.40;99.90;;;;;;5009048;28;20451;-76
2023/09/12 03:16:13;;;;;;;0.10;0.10;;;21.20;99.90;;;;;;5009571;28;20036;-76
2023/09/12 03:18:40;;;;;;;1.30;1.20;;;21.00;99.90;;;;;;5009212;28;20030;-77
2023/09/12 03:21:06;;;;;;;0.15;0.15;;;21.10;99.90;;;;;;5010911;28;20574;-77
2023/09/12 03:23:32;;;;;;;1.55;1.17;;;21.00;99.90;;;;;;4993176;28;20030;-76
2023/09/12 03:26:06;;;;;;;0.20;0.20;;;20.90;99.90;;;;;;5009251;28;20029;-77
2023/09/12 03:28:34;;;;;;;0.00;0.00;;;21.30;99.90;;;;;;5010300;28;20090;-75
2023/09/12 03:31:07;;;;;;;0.00;0.00;;;21.30;99.90;;;;;;5011105;28;20025;-78
2023/09/12 03:33:33;;;;;;;0.10;0.10;;;21.50;99.90;;;;;;5009223;28;20053;-76
2023/09/12 03:35:58;;;;;;;0.43;0.43;;;21.50;99.90;;;;;;5010396;28;20092;-76
2023/09/12 03:38:24;;;;;;;0.13;0.13;;;21.60;99.90;;;;;;5009280;28;20042;-75
2023/09/12 03:40:50;;;;;;;1.65;1.55;;;21.60;99.90;;;;;;5009297;28;20109;-76
2023/09/12 03:43:16;;;;;;;6.95;1.35;;;21.20;99.90;;;;;;4992770;28;20049;-77
2023/09/12 03:45:42;;;;;;;0.10;0.10;;;21.00;99.90;;;;;;5002914;28;20054;-76
2023/09/12 03:48:09;;;;;;;0.03;0.03;;;20.80;99.90;;;;;;4992143;28;20018;-76
2023/09/12 03:50:34;;;;;;;0.35;0.35;;;21.10;99.90;;;;;;5006709;28;20045;-77
2023/09/12 03:53:00;;;;;;;0.00;0.00;;;21.40;99.90;;;;;;5007442;28;20383;-76
2023/09/12 03:55:27;;;;;;;0.00;0.00;;;21.50;99.90;;;;;;5017832;28;20036;-77
2023/09/12 03:57:53;;;;;;;0.00;0.00;;;21.50;99.90;;;;;;5010101;28;20021;-77
2023/09/12 04:00:19;;;;;;;0.00;0.00;;;21.40;99.90;;;;;;5010077;28;20034;-76
2023/09/12 04:02:47;;;;;;;0.00;0.00;;;21.50;99.90;;;;;;5008602;28;20078;-76
2023/09/12 04:05:14;;;;;;;0.10;0.10;;;21.30;99.90;;;;;;5008636;28;20030;-77
2023/09/12 04:07:41;;;;;;;0.00;0.00;;;21.30;99.90;;;;;;5006708;28;20048;-77
2023/09/12 04:10:07;;;;;;;0.00;0.00;;;21.60;99.90;;;;;;5008953;28;20026;-77
2023/09/12 04:12:32;;;;;;;1.33;1.17;;;21.40;99.90;;;;;;5006541;28;20037;-79
2023/09/12 04:14:58;;;;;;;0.10;0.10;;;21.00;99.90;;;;;;5008359;28;20037;-76
2023/09/12 04:17:24;;;;;;;0.00;0.00;;;21.00;99.90;;;;;;5008917;28;20432;-79
2023/09/12 04:19:50;;;;;;;0.00;0.00;;;21.20;99.90;;;;;;5010103;28;20030;-80
2023/09/12 04:22:16;;;;;;;0.00;0.00;;;21.30;99.90;;;;;;5010130;28;20018;-80
2023/09/12 04:24:41;;;;;;;0.10;0.10;;;21.60;99.90;;;;;;5009861;28;20022;-81
2023/09/12 04:27:07;;;;;;;0.00;0.00;;;21.60;99.90;;;;;;5008331;28;20075;-77
2023/09/12 04:29:34;;;;;;;0.00;0.00;;;21.70;99.90;;;;;;5008410;28;20041;-80
2023/09/12 04:32:05;;;;;;;0.00;0.00;;;21.60;99.90;;;;;;5008538;28;20394;-77
2023/09/12 04:34:32;;;;;;;0.10;0.10;;;21.50;99.90;;;;;;5008862;28;20042;-79
2023/09/12 04:36:58;;;;;;;2.53;1.35;;;21.40;99.90;;;;;;5008409;28;20049;-77
2023/09/12 04:39:25;;;;;;;0.00;0.00;;;21.40;99.90;;;;;;5008248;28;20120;-81
2023/09/12 04:41:52;;;;;;;0.15;0.15;;;21.40;99.90;;;;;;5008267;28;20029;-78
2023/09/12 04:44:17;;;;;;;0.00;0.00;;;21.50;99.90;;;;;;5009630;28;20101;-76
2023/09/12 04:46:43;;;;;;;0.00;0.00;;;21.60;99.90;;;;;;5009801;28;20176;-80
2023/09/12 04:49:09;;;;;;;0.00;0.00;;;21.50;99.90;;;;;;5008373;28;20026;-76
2023/09/12 04:51:35;;;;;;;0.00;0.00;;;21.50;99.90;;;;;;5009698;28;20029;-78
2023/09/12 04:54:01;;;;;;;0.10;0.10;;;21.60;99.90;;;;;;5008078;28;20034;-80
2023/09/12 04:56:27;;;;;;;0.32;0.32;;;21.50;99.90;;;;;;5008261;28;20385;-77
2023/09/12 04:58:53;;;;;;;0.05;0.05;;;21.40;99.90;;;;;;5008387;28;20029;-78
2023/09/12 05:01:19;;;;;;;0.00;0.00;;;21.10;99.90;;;;;;5007966;28;20053;-79
2023/09/12 05:03:46;;;;;;;0.00;0.00;;;20.80;99.90;;;;;;5008416;28;20034;-80
2023/09/12 05:06:13;;;;;;;4.75;1.88;;;21.00;99.90;;;;;;5012113;28;20026;-80
2023/09/12 05:08:40;;;;;;;0.85;0.85;;;21.10;99.90;;;;;;4995095;28;20022;-80
2023/09/12 05:11:06;;;;;;;0.10;0.10;;;21.10;99.90;;;;;;5011324;28;20129;-80
2023/09/12 05:13:33;;;;;;;0.00;0.00;;;20.90;99.90;;;;;;5011550;28;20113;-80
2023/09/12 05:15:59;;;;;;;0.10;0.10;;;20.90;99.90;;;;;;5011262;28;20478;-79
2023/09/12 05:18:26;;;;;;;1.17;0.55;;;20.60;99.90;;;;;;5011421;28;20046;-79
2023/09/12 05:20:51;;;;;;;0.40;0.40;;;20.60;99.90;;;;;;5011323;28;20018;-79
2023/09/12 05:23:17;;;;;;;0.22;0.22;;;20.30;99.90;;;;;;5029386;28;20470;-80
2023/09/12 05:25:44;;;;;;;0.10;0.10;;;20.20;99.90;;;;;;5014630;28;20108;-79
2023/09/12 05:28:09;;;;;;;6.50;1.02;;;20.30;99.90;;;;;;5027530;28;20482;-81
2023/09/12 05:30:36;;;;;;;0.08;0.08;;;20.60;99.90;;;;;;5028312;28;20014;-79
2023/09/12 05:33:02;;;;;;;0.60;0.60;;;20.60;99.90;;;;;;5038861;28;20035;-80
2023/09/12 05:35:28;;;;;;;0.57;0.57;;;20.40;99.90;;;;;;5020973;28;20088;-80
2023/09/12 05:37:54;;;;;;;0.00;0.00;;;20.10;99.90;;;;;;5012020;28;20030;-80
2023/09/12 05:40:20;;;;;;;0.08;0.08;;;20.30;99.90;;;;;;5036713;28;20057;-80
2023/09/12 05:42:46;;;;;;;0.10;0.10;;;20.60;99.90;;;;;;5027935;28;20552;-80
2023/09/12 05:45:13;;;;;;;0.10;0.10;;;20.50;99.90;;;;;;5036175;28;20021;-80
2023/09/12 05:47:38;;;;;;;1.58;1.48;;;20.60;99.90;;;;;;5011475;28;20394;-75
2023/09/12 05:50:06;;;;;;;0.30;0.30;;;20.50;99.90;;;;;;5024587;28;20054;-76
2023/09/12 05:52:33;;;;;;;0.00;0.00;;;20.50;99.90;;;;;;5019453;28;20018;-77
2023/09/12 05:54:59;;;;;;;0.00;0.00;;;20.40;99.90;;;;;;5042703;28;20429;-76
2023/09/12 05:57:25;;;;;;;0.00;0.00;;;20.60;99.90;;;;;;5027100;28;20541;-76
2023/09/12 05:59:51;;;;;;;0.00;0.00;;;20.70;99.90;;;;;;5037062;28;20154;-76
2023/09/12 06:02:17;;;;;;;0.00;0.00;;;20.70;99.90;;;;;;5028802;28;20497;-76
2023/09/12 06:04:44;;;;;;;0.00;0.00;;;20.70;99.90;;;;;;5022019;28;20026;-76
2023/09/12 06:07:10;;;;;;;5.78;2.00;;;20.90;99.90;;;;;;5037336;28;20026;-75
2023/09/12 06:09:36;;;;;;;1.52;1.42;;;21.00;99.90;;;;;;5026238;28;20493;-76
2023/09/12 06:12:02;;;;;;;0.00;0.00;;;20.90;99.90;;;;;;5013771;28;20026;-76
2023/09/12 06:14:28;;;;;;;0.00;0.00;;;20.90;99.90;;;;;;5044046;28;20375;-76
2023/09/12 06:16:54;;;;;;;0.00;0.00;;;21.10;99.90;;;;;;5045974;28;20053;-76
2023/09/12 06:19:20;;;;;;;0.10;0.10;;;20.90;99.90;;;;;;5015843;28;20101;-76
2023/09/12 06:21:46;;;;;;;0.00;0.00;;;21.10;99.90;;;;;;5032367;28;20037;-76
2023/09/12 06:24:23;;;;;;;0.00;0.00;;;21.20;99.90;;;;;;5012533;28;20040;-77
2023/09/12 06:26:50;;;;;;;0.10;0.10;;;21.10;99.90;;;;;;5009785;28;20037;-77
2023/09/12 06:29:16;;;;;;;0.00;0.00;;;21.20;99.90;;;;;;5012765;28;20026;-76
2023/09/12 06:31:42;;;;;;;0.00;0.00;;;21.20;99.90;;;;;;5011746;28;20126;-78
2023/09/12 06:34:08;;;;;;;3.35;1.00;;;21.10;99.90;;;;;;5074321;28;20034;-77
2023/09/12 06:36:34;;;;;;;1.00;0.93;;;21.20;99.90;;;;;;5028977;28;20110;-76
2023/09/12 06:39:00;;;;;;;0.00;0.00;;;21.30;99.90;;;;;;5052833;28;20039;-76
2023/09/12 06:41:27;;;;;;;4.90;0.52;;;21.00;99.90;;;;;;5020330;28;20453;-76
2023/09/12 06:43:56;;;;;;;0.05;0.05;;;20.90;99.90;;;;;;5078839;28;20106;-77
2023/09/12 06:46:22;;;;;;;6.45;2.67;;;21.20;99.90;;;;;;5073882;28;20045;-76
2023/09/12 06:48:50;;;;;;;0.38;0.35;;;21.10;99.90;;;;;;5071071;28;20043;-77
2023/09/12 06:51:16;;;;;;;0.10;0.10;;;21.00;99.90;;;;;;5033145;28;20046;-77
2023/09/12 06:53:42;;;;;;;0.03;0.03;;;20.90;99.90;;;;;;5015847;28;20038;-76
2023/09/12 06:56:08;;;;;;;0.00;0.00;;;21.00;99.90;;;;;;5075653;28;20447;-76
2023/09/12 06:58:34;;;;;;;0.00;0.00;;;21.30;99.90;;;;;;5077325;28;20107;-75
2023/09/12 07:01:04;;;;;;;0.20;0.20;;;21.30;99.90;;;;;;5050819;28;20469;-76
2023/09/12 07:03:31;;;;;;;0.52;0.52;;;21.40;99.90;;;;;;5024336;28;20501;-76
2023/09/12 07:05:57;;;;;;;3.97;3.60;;;21.40;99.90;;;;;;5011399;28;20037;-77
2023/09/12 07:08:23;;;;;;;0.00;0.00;;;21.40;99.90;;;;;;5076974;28;20030;-76
2023/09/12 07:10:49;;;;;;;0.10;0.10;;;21.50;99.90;;;;;;5076774;27;20090;-76
2023/09/12 07:13:15;;;;;;;0.00;0.00;;;21.70;99.90;;;;;;5017958;28;20517;-77
2023/09/12 07:15:40;;;;;;;2.20;2.03;;;21.30;99.90;;;;;;5010217;28;20029;-78
2023/09/12 07:18:07;;;;;;;0.10;0.10;;;21.10;99.90;;;;;;5010671;28;20470;-77
2023/09/12 07:20:34;;;;;;;0.20;0.20;;;21.30;99.90;;;;;;5008911;28;20022;-79
2023/09/12 07:23:00;;;;;;;0.00;0.00;;;21.40;99.90;;;;;;5010582;28;20101;-79
2023/09/12 07:25:25;;;;;;;5.00;2.85;;;21.80;99.90;;;;;;5009955;28;20105;-79
2023/09/12 07:27:51;;;;;;;0.55;0.55;;;21.40;99.90;;;;;;5009153;28;20504;-79
2023/09/12 07:30:18;;;;;;;2.30;2.10;;;21.30;99.90;;;;;;5010041;28;20018;-79
2023/09/12 07:32:44;;;;;;;2.05;1.02;;;21.30;99.90;;;;;;4998239;28;20041;-79
2023/09/12 07:35:10;;;;;;;3.38;2.17;;;21.40;99.90;;;;;;5002420;28;20037;-79
2023/09/12 07:37:36;;;;;;;6.45;3.50;;;21.40;99.90;;;;;;5000120;28;20029;-79
2023/09/12 07:40:09;;;;;;;4.70;4.30;;;21.20;99.90;;;;;;5009979;28;20022;-79
2023/09/12 07:42:36;;;;;;;12.48;5.07;;;21.20;99.90;;;;;;5010269;28;20075;-80
2023/09/12 07:45:05;;;;;;;3.55;3.15;;;21.10;99.90;;;;;;5010372;28;20470;-79
2023/09/12 07:47:32;;;;;;;16.75;8.50;;;21.10;99.90;;;;;;5010494;28;20030;-78
2023/09/12 07:50:00;;;;;;;12.75;2.22;;;21.10;99.90;;;;;;5009838;28;20034;-79
2023/09/12 07:52:26;;;;;;;14.60;8.48;;;20.70;99.90;;;;;;5008951;28;20025;-79
2023/09/12 07:54:56;;;;;;;15.23;6.40;;;20.60;99.90;;;;;;5009899;28;20129;-78
2023/09/12 07:57:23;;;;;;;0.85;0.85;;;20.60;99.90;;;;;;5001667;28;20498;-79
2023/09/12 07:59:49;;;;;;;23.15;8.05;;;20.70;99.90;;;;;;5007874;28;20018;-79
2023/09/12 08:02:15;;;;;;;11.68;4.43;;;20.40;99.90;;;;;;4995300;28;20039;-79
2023/09/12 08:04:41;;;;;;;4.85;2.70;;;20.60;99.90;;;;;;5006872;28;20095;-79
2023/09/12 08:07:07;;;;;;;1.75;1.65;;;20.80;99.90;;;;;;4993509;28;20076;-79
2023/09/12 08:09:57;;;;;;;4.25;3.95;;;20.90;99.90;;;;;;5009822;28;20083;-80
2023/09/12 08:12:25;;;;;;;0.52;0.52;;;20.90;99.90;;;;;;5009969;28;20040;-80
2023/09/12 08:14:52;;;;;;;0.20;0.20;;;21.10;99.90;;;;;;5009865;28;20087;-80
2023/09/12 08:17:18;;;;;;;0.77;0.77;;;21.30;99.90;;;;;;5009769;28;20018;-79
2023/09/12 08:19:44;;;;;;;0.00;0.00;;;21.30;99.90;;;;;;5010008;28;20850;-80
2023/09/12 08:22:10;;;;;;;4.03;1.55;;;21.70;99.90;;;;;;5008654;28;20131;-79
2023/09/12 08:24:37;;;;;;;19.92;10.63;;;21.50;99.90;;;;;;5009938;28;20049;-79
2023/09/12 08:27:04;;;;;;;2.17;1.48;;;21.50;99.90;;;;;;5009803;28;20026;-80
2023/09/12 08:29:31;;;;;;;1.58;1.48;;;21.50;99.90;;;;;;5009810;28;20482;-79
2023/09/12 08:31:56;;;;;;;28.05;9.05;;;21.50;99.90;;;;;;5009607;28;20038;-81
2023/09/12 08:34:22;;;;;;;16.58;7.82;;;21.60;99.90;;;;;;4994817;28;20030;-79
2023/09/12 08:36:48;;;;;;;9.35;8.43;;;21.60;99.90;;;;;;5009865;28;20367;-79
2023/09/12 08:39:16;;;;;;;6.90;4.22;;;21.60;99.90;;;;;;5009958;28;20060;-79
2023/09/12 08:41:43;;;;;;;2.63;1.35;;;21.40;99.90;;;;;;5013114;28;20030;-80
2023/09/12 08:44:09;;;;;;;6.63;3.70;;;21.90;99.90;;;;;;5013091;28;20026;-79
2023/09/12 08:46:36;;;;;;;4.15;0.98;;;22.10;99.90;;;;;;5013110;28;20434;-81
2023/09/12 08:49:06;;;;;;;16.45;4.90;;;22.40;99.90;;;;;;4995634;28;20030;-80
2023/09/12 08:51:32;;;;;;;2.53;2.30;;;22.50;99.90;;;;;;5013187;28;20086;-80
2023/09/12 08:53:58;;;;;;;0.43;0.43;;;22.30;99.90;;;;;;5012735;28;20038;-79
2023/09/12 08:56:24;;;;;;;1.75;1.52;;;22.60;99.90;;;;;;5012865;28;20427;-79
2023/09/12 08:58:52;;;;;;;1.73;1.63;;;22.10;99.90;;;;;;5013165;28;20034;-79
2023/09/12 09:01:19;;;;;;;0.77;0.47;;;22.30;99.90;;;;;;5012501;28;20113;-80
2023/09/12 09:03:45;;;;;;;2.15;1.77;;;22.40;99.90;;;;;;5013059;28;20279;-79
2023/09/12 09:06:12;;;;;;;0.75;0.75;;;22.50;99.90;;;;;;5012517;28;20506;-81
2023/09/12 09:08:41;;;;;;;11.85;2.78;;;22.30;99.90;;;;;;5012940;28;20022;-79
2023/09/12 09:11:06;;;;;;;6.85;2.67;;;21.90;99.90;;;;;;5012602;28;20025;-79
2023/09/12 09:13:33;;;;;;;0.00;0.00;;;21.80;99.90;;;;;;5012669;28;20026;-79
2023/09/12 09:16:15;;;;;;;0.45;0.45;;;22.10;99.90;;;;;;5012452;28;20030;-79
2023/09/12 09:18:58;;;;;;;0.08;0.05;;;22.50;99.90;;;;;;5012620;28;20026;-80
2023/09/12 09:21:27;;;;;;;1.20;1.10;;;23.00;99.90;;;;;;5012737;28;20030;-80
2023/09/12 09:23:54;;;;;;;0.30;0.30;;;22.70;99.90;;;;;;5012623;28;20020;-80
2023/09/12 09:26:20;;;;;;;4.90;3.67;;;23.10;99.90;;;;;;5011354;28;20058;-80
2023/09/12 09:29:05;;;;;;;0.25;0.25;;;23.50;99.90;;;;;;5012464;28;20034;-81
2023/09/12 09:31:32;;;;;;;0.68;0.68;;;23.30;99.90;;;;;;5010962;28;20483;-80
2023/09/12 09:33:59;;;;;;;1.95;1.85;;;23.40;99.90;;;;;;5012354;28;20046;-79
2023/09/12 09:36:25;;;;;;;5.97;1.45;;;23.10;99.90;;;;;;5012414;28;20030;-79
2023/09/12 09:38:51;;;;;;;0.60;0.57;;;23.10;99.90;;;;;;5011168;28;20075;-80
2023/09/12 09:41:21;;;;;;;0.95;0.65;;;23.30;99.90;;;;;;5012159;28;20018;-80
2023/09/12 09:43:51;;;;;;;0.25;0.25;;;23.40;99.90;;;;;;5012528;28;20029;-81
2023/09/12 09:46:18;;;;;;;3.35;1.70;;;23.70;99.90;;;;;;4998895;28;20022;-80
2023/09/12 09:48:51;;;;;;;0.25;0.25;;;24.00;99.90;;;;;;5012441;28;20382;-80
2023/09/12 09:51:17;;;;;;;1.58;1.48;;;23.80;99.90;;;;;;5010911;28;20026;-80
2023/09/12 09:53:43;;;;;;;8.60;4.03;;;24.00;99.90;;;;;;5011990;28;20122;-80
2023/09/12 09:56:10;;;;;;;2.85;1.58;;;24.00;99.90;;;;;;5012224;28;20018;-80
2023/09/12 09:58:42;;;;;;;8.45;2.20;;;23.70;99.90;;;;;;5010788;28;20030;-79
2023/09/12 10:01:10;;;;;;;2.40;1.48;;;23.90;99.90;;;;;;5015539;28;20501;-80
2023/09/12 10:03:37;;;;;;;1.23;1.20;;;24.50;99.90;;;;;;5012094;28;20490;-81
2023/09/12 10:06:05;;;;;;;0.55;0.55;;;24.60;99.90;;;;;;5011888;28;20057;-80
2023/09/12 10:08:32;;;;;;;8.23;4.10;;;24.80;99.90;;;;;;5011742;28;20381;-80
2023/09/12 10:10:59;;;;;;;9.63;3.17;;;24.30;99.90;;;;;;5012176;28;20032;-80
2023/09/12 10:13:31;;;;;;;5.47;4.15;;;24.10;99.90;;;;;;5011470;28;20026;-80
2023/09/12 10:16:00;;;;;;;4.35;1.70;;;24.10;99.90;;;;;;5010353;28;20038;-77
2023/09/12 10:18:30;;;;;;;1.08;1.08;;;24.10;99.90;;;;;;5011620;28;20026;-78
2023/09/12 10:21:07;;;;;;;0.30;0.30;;;24.70;99.90;;;;;;5011726;28;20029;-80
2023/09/12 10:23:44;;;;;;;2.55;1.55;;;25.30;99.90;;;;;;5011474;28;20026;-78
2023/09/12 10:26:12;;;;;;;4.45;1.98;;;25.00;99.90;;;;;;5011621;28;20053;-77
2023/09/12 10:28:41;;;;;;;2.30;1.05;;;25.10;99.90;;;;;;5011358;28;20040;-80
2023/09/12 10:31:09;;;;;;;0.20;0.20;;;25.00;99.90;;;;;;5012121;28;20061;-80
2023/09/12 10:33:35;;;;;;;2.80;2.13;;;25.20;99.90;;;;;;4997839;28;20046;-80
2023/09/12 10:36:04;;;;;;;2.63;2.42;;;25.40;99.90;;;;;;5010435;28;20386;-80
2023/09/12 10:38:32;;;;;;;1.73;1.63;;;25.30;99.90;;;;;;5011238;28;20034;-81
2023/09/12 10:41:01;;;;;;;0.10;0.10;;;25.60;99.90;;;;;;4997750;28;20025;-81
2023/09/12 10:43:29;;;;;;;4.88;4.15;;;26.10;99.90;;;;;;5010927;28;20459;-80
2023/09/12 10:45:56;;;;;;;0.52;0.52;;;25.90;99.90;;;;;;5011147;28;20104;-79
2023/09/12 10:48:23;;;;;;;2.03;1.92;;;26.00;99.90;;;;;;5011301;28;20083;-81
2023/09/12 10:50:49;;;;;;;3.42;1.95;;;26.30;99.90;;;;;;5011099;28;20022;-79
2023/09/12 10:53:16;;;;;;;1.38;1.27;;;26.00;99.90;;;;;;5011008;28;20029;-77
2023/09/12 10:55:57;;;;;;;6.50;3.03;;;26.40;99.90;;;;;;5010972;28;20033;-76
2023/09/12 10:58:23;;;;;;;1.20;0.93;;;26.20;99.90;;;;;;5010749;28;20101;-77
2023/09/12 11:01:21;;;;;;;0.00;0.00;;;26.40;99.90;;;;;;5011148;28;20110;-78
2023/09/12 11:03:47;;;;;;;0.00;0.00;;;27.00;99.90;;;;;;5010377;28;20571;-80
2023/09/12 11:06:32;;;;;;;1.73;1.48;;;27.40;99.90;;;;;;5011170;28;20032;-79
2023/09/12 11:09:14;;;;;;;2.28;1.35;;;27.00;99.90;;;;;;5009857;28;20030;-81
2023/09/12 11:11:41;;;;;;;0.60;0.60;;;26.30;99.90;;;;;;5009651;28;20545;-78
2023/09/12 11:14:07;;;;;;;0.55;0.43;;;26.00;99.90;;;;;;5010134;28;20026;-80
2023/09/12 11:16:34;;;;;;;6.03;1.55;;;26.90;99.90;;;;;;5011020;28;20427;-78
2023/09/12 11:19:18;;;;;;;1.27;1.05;;;26.90;99.90;;;;;;5010730;28;20101;-80
2023/09/12 11:21:49;;;;;;;8.07;2.47;;;27.20;99.90;;;;;;5010768;28;20044;-79
2023/09/12 11:24:15;;;;;;;2.50;1.65;;;26.80;99.90;;;;;;5010657;28;20037;-78
2023/09/12 11:27:00;;;;;;;5.10;2.42;;;26.70;99.90;;;;;;5010591;28;20025;-81
2023/09/12 11:29:38;;;;;;;0.40;0.40;;;26.80;99.90;;;;;;5006849;28;20030;-80
2023/09/12 11:32:05;;;;;;;3.13;2.42;;;27.10;99.90;;;;;;5010537;28;20536;-79
2023/09/12 11:34:41;;;;;;;0.00;0.00;;;26.70;99.90;;;;;;5008889;28;20780;-80
2023/09/12 11:37:08;;;;;;;0.88;0.82;;;26.90;99.90;;;;;;5027208;28;20075;-79
2023/09/12 11:39:39;;;;;;;0.00;0.00;;;27.20;99.90;;;;;;5009800;28;20029;-79
2023/09/12 11:42:09;;;;;;;1.63;0.95;;;27.60;99.90;;;;;;5018527;28;20039;-81
2023/09/12 11:44:35;;;;;;;1.00;0.85;;;28.40;99.90;;;;;;5010853;28;20048;-79
2023/09/12 11:47:06;;;;;;;0.00;0.00;;;27.80;99.90;;;;;;5025150;28;20026;-80
2023/09/12 11:49:37;;;;;;;0.10;0.10;;;28.30;99.90;;;;;;5014888;28;20030;-83
2023/09/12 11:52:04;;;;;;;1.55;1.45;;;28.50;99.90;;;;;;5070409;28;20272;-80
2023/09/12 11:54:31;;;;;;;0.00;0.00;;;28.60;99.90;;;;;;5031216;28;20060;-81
2023/09/12 11:56:59;;;;;;;0.45;0.45;;;29.10;99.90;;;;;;5013209;28;20120;-81
2023/09/12 11:59:26;;;;;;;0.00;0.00;;;28.60;99.90;;;;;;5050253;28;20385;-81
2023/09/12 12:01:53;;;;;;;1.27;1.17;;;29.30;99.90;;;;;;5065723;28;20390;-79
2023/09/12 12:04:24;;;;;;;0.22;0.22;;;29.40;99.80;;;;;;5054787;28;20020;-80
2023/09/12 12:06:51;;;;;;;2.63;1.58;;;29.90;99.90;;;;;;5023753;28;20061;-79
2023/09/12 12:09:19;;;;;;;2.95;0.95;;;29.80;98.30;;;;;;5011371;28;20058;-80
2023/09/12 12:11:46;;;;;;;2.78;2.45;;;29.90;99.80;;;;;;5021144;28;20022;-80
2023/09/12 12:14:19;;;;;;;1.48;1.38;;;30.00;97.80;;;;;;5072820;28;20665;-81
2023/09/12 12:16:46;;;;;;;0.70;0.57;;;29.40;98.70;;;;;;5076552;28;20042;-80
2023/09/12 12:19:14;;;;;;;3.00;1.77;;;30.60;98.60;;;;;;5039398;28;20045;-79
2023/09/12 12:21:42;;;;;;;2.60;0.68;;;29.40;97.60;;;;;;5027124;28;20088;-80
2023/09/12 12:24:12;;;;;;;0.22;0.20;;;29.30;97.80;;;;;;5029505;28;20456;-79
2023/09/12 12:26:40;;;;;;;3.83;1.55;;;30.40;98.50;;;;;;5088015;28;20027;-80
2023/09/12 12:29:06;;;;;;;0.00;0.00;;;30.80;97.60;;;;;;5035128;28;20064;-79
2023/09/12 12:31:32;;;;;;;1.20;1.13;;;31.10;97.70;;;;;;5019193;28;20030;-81
2023/09/12 12:33:59;;;;;;;0.38;0.38;;;31.50;97.50;;;;;;5022059;28;20026;-83
2023/09/12 12:36:25;;;;;;;0.00;0.00;;;32.00;97.30;;;;;;5035906;28;20048;-81
2023/09/12 12:38:51;;;;;;;0.13;0.13;;;30.90;97.30;;;;;;5018757;28;20472;-79
2023/09/12 12:41:23;;;;;;;2.72;0.28;;;30.30;96.80;;;;;;5043131;28;20095;-81
2023/09/12 12:43:51;;;;;;;0.00;0.00;;;30.70;97.40;;;;;;5038443;28;20082;-79
2023/09/12 12:46:28;;;;;;;0.00;0.00;;;31.10;97.30;;;;;;5045111;28;20047;-78
2023/09/12 12:48:55;;;;;;;2.72;0.70;;;31.80;95.50;;;;;;5004783;28;20046;-77